»·PEaware :: APW8482 MDPC-KPSP

APW8482 :: MDPC-KPSP

FLIGHT INFORMATION

Flight Status: Arrived
Operator:
Arrow Cargo
More flights by this operator :: More flights under this callsign
Pilot: Alan J. (5709)
Aircraft: LOCKHEED L-1011 TRI-STAR
(L101)
More flights by this aircraft type
Origin: MDPC Punta Cana Intl
Dominican Republic
Destination: KPSP Palm Springs Intl
United States
More flights between these airports :: More routes between these airports
Route: +BERE2A BEREL STRUD BR1L SQT ORL J20 SZW J2 SJI J2 LSU J590 LCH J2 IAH J86 ELP J50 TFD J169 KOFFA J65 SALOM J169 BLH CLOWD1
File this flight plan on PilotEdge
Remarks: / L RVSM GNSS
Altitude:
(Current/Filed)
34,000ft
Speed:
(Current/Filed)
490kts
Departed: 20-May-16 03:26 PM
Arrived: 20-May-16 04:41 PM
Distance/Time
Traveled:
2721nm/1:15
Distance/Time
To Go:
Arrived

Flight Plot

Page will automatically refresh every two minutes.

Flight plan parsing failed; only flown route is shown


Map Options




Map Legend


Flown Route
Filed Route
Departure Airport
Arrival Airport
Navaid (VOR, NDB)
Fix

Horizontal Profiles

Position Reports

Time Latitude Longitude Heading Altitude Ground
Speed
20-May-16 14:54 18.564464 -68.362384 174 63ft 0kts
20-May-16 14:55 18.564464 -68.362384 174 63ft 0kts
20-May-16 14:56 18.564464 -68.362384 174 63ft 0kts
20-May-16 14:57 18.564464 -68.362384 174 63ft 0kts
20-May-16 14:58 18.564464 -68.362384 174 63ft 0kts
20-May-16 14:59 18.564464 -68.362384 174 63ft 0kts
20-May-16 15:00 18.564464 -68.362384 174 63ft 0kts
20-May-16 15:01 18.564464 -68.362384 174 63ft 0kts
20-May-16 15:02 18.564464 -68.362384 174 63ft 0kts
20-May-16 15:03 18.564464 -68.362384 174 63ft 0kts
20-May-16 15:04 18.564464 -68.362384 174 63ft 0kts
20-May-16 15:05 18.564464 -68.362384 174 63ft 0kts
20-May-16 15:06 18.564464 -68.362384 174 63ft 0kts
20-May-16 15:07 18.564464 -68.362384 174 63ft 0kts
20-May-16 15:08 18.564464 -68.362384 174 63ft 0kts
20-May-16 15:09 18.564464 -68.362384 174 63ft 0kts
20-May-16 15:10 18.564464 -68.362384 174 63ft 0kts
20-May-16 15:11 18.564464 -68.362384 174 63ft 0kts
20-May-16 15:12 18.564464 -68.362384 174 63ft 0kts
20-May-16 15:13 18.564464 -68.362384 174 63ft 0kts
20-May-16 15:14 18.564464 -68.362384 174 63ft 0kts
20-May-16 15:15 18.564463 -68.362384 174 63ft 0kts
20-May-16 15:16 18.564463 -68.362384 174 63ft 0kts
20-May-16 15:17 18.564463 -68.362384 174 63ft 0kts
20-May-16 15:18 18.564357 -68.362444 225 63ft 0kts
20-May-16 15:19 18.564442 -68.362654 311 63ft 3kts
20-May-16 15:20 18.565901 -68.363680 352 63ft 9kts
20-May-16 15:21 18.566035 -68.366703 265 63ft 18kts
20-May-16 15:22 18.565509 -68.373716 265 63ft 29kts
20-May-16 15:23 18.565513 -68.377747 328 63ft 6kts
20-May-16 15:24 18.566410 -68.374297 84 63ft 64kts
20-May-16 15:25 18.569740 -68.334850 85 302ft 165kts
20-May-16 15:26 18.584058 -68.290398 40 1255ft 178kts
20-May-16 15:27 18.618880 -68.248502 55 2320ft 204kts
20-May-16 15:28 18.665450 -68.202105 12 4312ft 266kts
20-May-16 15:29 18.719600 -68.247231 275 7397ft 281kts
20-May-16 15:30 18.719243 -68.331529 275 10130ft 299kts
20-May-16 15:31 18.735536 -68.430471 285 11404ft 382kts
20-May-16 15:32 18.762391 -68.547394 282 14487ft 434kts
20-May-16 15:33 18.788559 -68.676738 282 17476ft 452kts
20-May-16 15:34 18.814625 -68.805540 282 20487ft 442kts
20-May-16 15:35 18.872474 -68.913385 319 23410ft 416kts
20-May-16 15:36 18.962262 -68.992564 319 24692ft 430kts
20-May-16 15:37 19.054288 -69.075951 319 26003ft 437kts
20-May-16 15:38 19.147754 -69.160013 319 27153ft 443kts
20-May-16 15:39 19.242380 -69.245383 319 28148ft 448kts
20-May-16 15:40 19.337769 -69.331470 319 29001ft 454kts
20-May-16 15:41 19.434269 -69.418762 320 29825ft 456kts
20-May-16 15:42 19.530832 -69.506326 320 30646ft 455kts
20-May-16 15:43 19.627079 -69.593693 319 31463ft 453kts
20-May-16 15:44 19.722379 -69.680550 319 32276ft 448kts
20-May-16 15:45 19.816278 -69.766157 319 33085ft 442kts
20-May-16 15:46 19.908895 -69.851023 319 33894ft 434kts
20-May-16 15:47 20.001057 -69.935253 319 34092ft 441kts
20-May-16 15:48 22.449954 -72.269665 312 34096ft 447kts
20-May-16 15:49 22.536715 -72.367954 311 34091ft 456kts
20-May-16 15:50 22.624453 -72.468876 311 34090ft 462kts
20-May-16 15:51 23.597507 -73.601623 311 34076ft 463kts
20-May-16 15:52 24.463334 -74.629758 294 34106ft 458kts
20-May-16 15:53 24.576894 -74.860992 300 34102ft 462kts
20-May-16 15:54 24.644477 -74.982191 299 34106ft 466kts
20-May-16 15:55 28.572143 -81.429480 270 34106ft 461kts
20-May-16 15:56 28.536260 -81.569292 248 34111ft 465kts
20-May-16 15:57 30.138958 -93.102592 245 33994ft 452kts
20-May-16 15:58 30.127850 -93.239111 287 34023ft 443kts
20-May-16 15:59 31.852468 -106.378558 281 33991ft 445kts
20-May-16 16:00 31.868272 -106.464530 280 33976ft 449kts
20-May-16 16:01 33.461260 -113.345023 286 33992ft 453kts
20-May-16 16:02 33.479486 -113.493317 272 33763ft 450kts
20-May-16 16:03 33.492622 -113.642387 273 33741ft 448kts
20-May-16 16:04 33.504090 -113.762439 273 33735ft 447kts
20-May-16 16:05 33.520463 -113.935164 273 33726ft 446kts
20-May-16 16:06 33.531992 -114.058134 273 33724ft 446kts
20-May-16 16:07 33.545707 -114.206181 273 33719ft 446kts
20-May-16 16:08 33.559293 -114.352840 273 32050ft 440kts
20-May-16 16:09 33.571872 -114.488034 273 29216ft 425kts
20-May-16 16:10 33.584102 -114.625773 272 26208ft 398kts
20-May-16 16:11 33.595678 -114.753234 273 23726ft 363kts
20-May-16 16:12 33.631832 -114.869515 286 23706ft 376kts
20-May-16 16:13 33.667941 -114.979046 286 22847ft 349kts
20-May-16 16:14 33.699739 -115.076132 285 21154ft 321kts
20-May-16 16:15 33.731243 -115.172327 285 19335ft 297kts
20-May-16 16:16 33.761470 -115.265308 285 17538ft 296kts
20-May-16 16:17 33.791358 -115.356777 284 15734ft 289kts
20-May-16 16:18 33.820001 -115.445810 284 13929ft 282kts
20-May-16 16:19 33.848377 -115.533372 284 12126ft 278kts
20-May-16 16:20 33.876047 -115.619409 285 11030ft 273kts
20-May-16 16:21 33.903616 -115.704868 284 11042ft 273kts
20-May-16 16:22 33.915360 -115.764433 261 11052ft 266kts
20-May-16 16:23 33.908496 -115.851950 260 11036ft 261kts
20-May-16 16:24 33.897363 -115.937580 238 11037ft 257kts
20-May-16 16:25 33.841778 -115.988943 213 11015ft 253kts
20-May-16 16:26 33.783031 -116.035888 214 10991ft 253kts
20-May-16 16:27 33.724160 -116.083136 214 10940ft 254kts
20-May-16 16:28 33.658100 -116.105742 176 10279ft 262kts
20-May-16 16:29 33.587447 -116.104859 216 8449ft 257kts
20-May-16 16:30 33.581682 -116.180437 300 6665ft 259kts
20-May-16 16:31 33.632088 -116.243720 310 4821ft 256kts
20-May-16 16:32 33.680734 -116.298909 311 3889ft 213kts
20-May-16 16:33 33.711517 -116.339955 296 3529ft 136kts
20-May-16 16:34 33.731991 -116.378563 293 3012ft 136kts
20-May-16 16:35 33.751572 -116.417069 298 2084ft 134kts
20-May-16 16:36 33.774190 -116.453041 301 1532ft 129kts
20-May-16 16:37 33.801742 -116.482881 316 865ft 135kts
20-May-16 16:38 33.829325 -116.507353 323 493ft 78kts
20-May-16 16:39 33.835797 -116.513987 233 493ft 7kts
20-May-16 16:40 33.835736 -116.514073 229 493ft 0kts
20-May-16 16:41 33.833409 -116.512613 143 493ft 28kts
20-May-16 16:42 33.828812 -116.508585 144 493ft 7kts
20-May-16 16:43 33.824840 -116.507045 135 493ft 14kts

Navigation Log

Ident Type
Flight plan parsing failed, navigation log unavailable